Time;durP1;ratioP1;P1;durP2;ratioP2;P2;SDS_P1;SDS_P2;PMS_P1;PMS_P2;Temp;Humidity;BMP_temperature;BMP_pressure;BME280_temperature;BME280_humidity;BME280_pressure;Samples;Min_cycle;Max_cycle;Signal;HPM_P1;HPM_P2
2023/07/21 00:00:14;;;;;;;5.45;4.95;;;18.60;99.90;;;;;;5011442;28;20206;-79
2023/07/21 00:02:45;;;;;;;6.07;5.47;;;18.50;99.90;;;;;;5011243;28;20207;-78
2023/07/21 00:05:13;;;;;;;5.75;5.03;;;18.40;99.90;;;;;;5005086;28;20717;-78
2023/07/21 00:07:42;;;;;;;5.85;5.20;;;18.40;99.90;;;;;;5000422;28;20196;-79
2023/07/21 00:10:11;;;;;;;5.88;5.38;;;18.30;99.90;;;;;;5001898;28;20200;-79
2023/07/21 00:12:46;;;;;;;5.00;4.60;;;18.20;99.90;;;;;;5009266;28;20195;-79
2023/07/21 00:15:17;;;;;;;5.88;5.38;;;18.30;99.90;;;;;;4997594;28;20219;-79
2023/07/21 00:17:46;;;;;;;6.75;6.15;;;18.20;99.90;;;;;;5036360;28;20215;-79
2023/07/21 00:20:19;;;;;;;6.30;5.70;;;18.10;99.90;;;;;;4997936;28;20199;-79
2023/07/21 00:22:49;;;;;;;6.38;5.78;;;18.10;99.90;;;;;;5004791;28;20704;-79
2023/07/21 00:25:16;;;;;;;6.40;5.80;;;18.10;99.90;;;;;;5003722;28;20224;-79
2023/07/21 00:27:45;;;;;;;6.28;5.32;;;18.10;99.90;;;;;;4995164;28;20203;-79
2023/07/21 00:30:13;;;;;;;5.78;5.28;;;17.90;99.90;;;;;;5002437;28;20214;-79
2023/07/21 00:32:42;;;;;;;6.32;5.80;;;18.00;99.90;;;;;;5019273;28;20206;-79
2023/07/21 00:35:10;;;;;;;5.88;5.47;;;18.00;99.90;;;;;;5009552;28;20207;-79
2023/07/21 00:37:38;;;;;;;5.53;5.13;;;17.90;99.90;;;;;;5009813;28;20211;-79
2023/07/21 00:40:10;;;;;;;5.80;5.30;;;17.90;99.90;;;;;;5026088;28;20205;-79
2023/07/21 00:42:38;;;;;;;5.65;5.15;;;17.90;99.90;;;;;;5037629;28;20199;-79
2023/07/21 00:45:06;;;;;;;6.63;6.13;;;18.00;99.90;;;;;;4996940;28;20226;-79
2023/07/21 00:47:36;;;;;;;6.70;5.95;;;17.80;99.90;;;;;;5012951;28;20204;-79
2023/07/21 00:50:04;;;;;;;6.18;5.60;;;17.80;99.90;;;;;;5011457;28;20221;-78
2023/07/21 00:52:32;;;;;;;9.07;5.70;;;17.70;99.90;;;;;;5033264;28;20700;-79
2023/07/21 00:54:59;;;;;;;5.90;5.10;;;17.90;99.90;;;;;;5025082;28;20199;-79
2023/07/21 00:57:28;;;;;;;6.45;5.88;;;17.90;99.90;;;;;;5033174;28;20199;-79
2023/07/21 00:59:55;;;;;;;6.70;6.07;;;17.80;99.90;;;;;;5029385;28;20206;-78
2023/07/21 01:02:23;;;;;;;7.32;6.68;;;17.60;99.90;;;;;;5032993;28;20661;-78
2023/07/21 01:04:51;;;;;;;6.70;6.15;;;17.50;99.90;;;;;;5017178;28;20211;-78
2023/07/21 01:07:19;;;;;;;7.18;6.57;;;17.50;99.90;;;;;;5034493;28;20199;-78
2023/07/21 01:09:46;;;;;;;6.70;6.03;;;17.30;99.90;;;;;;5031421;28;20707;-78
2023/07/21 01:12:15;;;;;;;7.10;6.53;;;17.10;99.90;;;;;;5033907;28;20203;-78
2023/07/21 01:14:45;;;;;;;7.13;6.43;;;17.30;99.90;;;;;;5031913;28;20199;-79
2023/07/21 01:17:14;;;;;;;6.10;5.55;;;17.30;99.90;;;;;;5031887;28;20230;-78
2023/07/21 01:19:48;;;;;;;6.70;6.10;;;17.40;99.90;;;;;;5033454;28;20218;-78
2023/07/21 01:22:22;;;;;;;6.95;6.25;;;17.50;99.90;;;;;;5033840;28;20202;-78
2023/07/21 01:25:06;;;;;;;7.10;6.30;;;17.50;99.90;;;;;;5033418;28;20213;-79
2023/07/21 01:27:39;;;;;;;6.82;6.20;;;17.30;99.90;;;;;;5032420;28;20203;-79
2023/07/21 01:30:10;;;;;;;6.90;6.25;;;17.20;99.90;;;;;;5033382;28;20199;-78
2023/07/21 01:32:39;;;;;;;6.68;6.18;;;17.40;99.90;;;;;;5032276;28;20206;-78
2023/07/21 01:35:09;;;;;;;5.95;5.40;;;17.40;99.90;;;;;;5031691;28;20198;-78
2023/07/21 01:37:38;;;;;;;7.13;6.43;;;17.30;99.90;;;;;;5033101;28;20560;-78
2023/07/21 01:40:15;;;;;;;7.43;6.47;;;17.20;99.90;;;;;;5031639;28;20226;-79
2023/07/21 01:42:46;;;;;;;7.63;6.93;;;17.20;99.90;;;;;;5033635;28;20657;-79
2023/07/21 01:45:14;;;;;;;7.57;6.97;;;17.10;99.90;;;;;;5026659;28;20223;-78
2023/07/21 01:47:44;;;;;;;7.00;6.43;;;17.00;99.90;;;;;;5025237;28;20199;-78
2023/07/21 01:50:13;;;;;;;7.45;6.80;;;17.00;99.90;;;;;;5027508;28;20211;-79
2023/07/21 01:52:43;;;;;;;6.65;6.15;;;17.00;99.90;;;;;;5032205;28;20199;-79
2023/07/21 01:55:16;;;;;;;6.88;6.30;;;17.00;99.90;;;;;;5032905;28;20530;-78
2023/07/21 01:57:49;;;;;;;7.30;6.70;;;17.00;99.90;;;;;;5031089;28;20210;-78
2023/07/21 02:00:18;;;;;;;7.90;7.30;;;17.10;99.90;;;;;;5042964;28;20231;-78
2023/07/21 02:02:47;;;;;;;8.32;7.60;;;17.20;99.90;;;;;;5025548;28;20207;-78
2023/07/21 02:05:19;;;;;;;7.90;7.13;;;17.20;99.90;;;;;;5032743;28;20215;-79
2023/07/21 02:07:48;;;;;;;7.55;6.80;;;17.20;99.90;;;;;;5032257;28;20214;-79
2023/07/21 02:10:17;;;;;;;7.55;6.90;;;17.20;99.90;;;;;;5028889;28;20200;-79
2023/07/21 02:12:50;;;;;;;7.13;6.50;;;17.00;99.90;;;;;;5029345;28;20665;-79
2023/07/21 02:15:18;;;;;;;7.43;6.35;;;16.90;99.90;;;;;;5015322;28;20216;-79
2023/07/21 02:17:46;;;;;;;7.93;7.13;;;16.70;99.90;;;;;;5026631;28;20214;-78
2023/07/21 02:20:14;;;;;;;6.68;5.97;;;16.40;99.90;;;;;;5031666;28;20217;-79
2023/07/21 02:22:43;;;;;;;8.50;6.80;;;16.40;99.90;;;;;;5032541;28;20195;-79
2023/07/21 02:26:07;;;;;;;9.50;6.70;;;16.20;99.90;;;;;;5031857;28;20198;-78
2023/07/21 02:28:36;;;;;;;8.82;6.60;;;16.20;99.90;;;;;;5012733;28;20223;-78
2023/07/21 02:31:05;;;;;;;7.72;6.53;;;16.40;99.90;;;;;;5013172;28;20210;-78
2023/07/21 02:33:33;;;;;;;6.65;6.15;;;16.60;99.90;;;;;;5031344;28;20207;-78
2023/07/21 02:36:04;;;;;;;7.50;6.78;;;16.70;99.90;;;;;;5027924;28;20237;-78
2023/07/21 02:38:35;;;;;;;7.85;7.25;;;16.70;99.90;;;;;;5030086;28;20673;-78
2023/07/21 02:41:04;;;;;;;8.05;7.45;;;16.70;99.90;;;;;;5024577;28;20208;-78
2023/07/21 02:43:32;;;;;;;7.60;6.80;;;16.70;99.90;;;;;;5031836;28;20211;-78
2023/07/21 02:46:03;;;;;;;8.32;7.63;;;16.80;99.90;;;;;;5026466;28;20239;-78
2023/07/21 02:48:33;;;;;;;7.85;7.15;;;16.90;99.90;;;;;;5062252;28;20203;-79
2023/07/21 02:51:01;;;;;;;8.25;7.55;;;16.90;99.90;;;;;;5025143;28;20210;-78
2023/07/21 02:53:34;;;;;;;8.20;7.50;;;16.80;99.90;;;;;;5030037;28;20191;-78
2023/07/21 02:56:04;;;;;;;8.45;7.65;;;16.70;99.90;;;;;;5019909;28;20215;-78
2023/07/21 02:58:36;;;;;;;7.25;6.65;;;16.60;99.90;;;;;;5031252;28;20199;-78
2023/07/21 03:01:05;;;;;;;7.88;7.07;;;16.70;99.90;;;;;;5030417;28;20688;-78
2023/07/21 03:03:37;;;;;;;8.13;7.32;;;16.70;99.90;;;;;;5030794;28;20222;-78
2023/07/21 03:06:11;;;;;;;7.90;7.30;;;16.70;99.90;;;;;;5030030;28;20222;-80
2023/07/21 03:08:39;;;;;;;7.95;7.20;;;16.60;99.90;;;;;;5031779;28;20202;-79
2023/07/21 03:11:11;;;;;;;7.60;6.90;;;16.80;99.90;;;;;;5030379;28;20194;-79
2023/07/21 03:13:45;;;;;;;7.18;6.47;;;16.60;99.90;;;;;;5028070;28;20205;-79
2023/07/21 03:16:15;;;;;;;7.30;6.60;;;16.60;99.90;;;;;;5035743;28;20226;-79
2023/07/21 03:18:49;;;;;;;7.53;6.93;;;16.60;99.90;;;;;;5051568;28;20197;-79
2023/07/21 03:21:44;;;;;;;7.07;6.47;;;16.40;99.90;;;;;;5034802;28;20195;-79
2023/07/21 03:24:14;;;;;;;7.63;6.93;;;16.50;99.90;;;;;;5026667;28;20195;-79
2023/07/21 03:26:41;;;;;;;7.13;6.38;;;16.50;99.90;;;;;;5030749;28;20223;-79
2023/07/21 03:29:08;;;;;;;9.48;7.40;;;16.50;99.90;;;;;;5031961;28;20199;-79
2023/07/21 03:31:40;;;;;;;8.43;7.45;;;16.50;99.90;;;;;;5030488;28;20203;-78
2023/07/21 03:34:13;;;;;;;6.90;6.30;;;16.60;99.90;;;;;;5020308;28;20214;-79
2023/07/21 03:36:40;;;;;;;6.80;6.28;;;16.70;99.90;;;;;;5029452;28;20218;-79
2023/07/21 03:39:18;;;;;;;7.65;6.93;;;16.60;99.90;;;;;;5048997;28;20218;-79
2023/07/21 03:41:46;;;;;;;7.30;6.60;;;16.60;99.90;;;;;;5025884;28;20232;-79
2023/07/21 03:44:13;;;;;;;6.75;6.10;;;16.70;99.90;;;;;;5031010;28;20207;-79
2023/07/21 03:46:44;;;;;;;7.18;6.57;;;16.70;99.90;;;;;;5030753;28;20230;-79
2023/07/21 03:49:31;;;;;;;7.60;6.82;;;16.60;99.90;;;;;;5030735;28;20546;-79
2023/07/21 03:52:08;;;;;;;7.00;6.30;;;16.50;99.90;;;;;;5021862;28;20207;-79
2023/07/21 03:54:37;;;;;;;6.93;6.32;;;16.60;99.90;;;;;;5029536;28;20290;-79
2023/07/21 03:57:05;;;;;;;7.97;7.25;;;16.70;99.90;;;;;;5030998;28;20226;-79
2023/07/21 03:59:32;;;;;;;7.32;6.63;;;16.60;99.90;;;;;;5030683;28;20237;-79
2023/07/21 04:02:03;;;;;;;6.97;6.28;;;16.60;99.90;;;;;;5030970;28;20688;-79
2023/07/21 04:04:32;;;;;;;7.35;6.65;;;16.70;99.90;;;;;;5012207;28;20196;-79
2023/07/21 04:07:01;;;;;;;7.20;6.50;;;16.80;99.90;;;;;;5011431;28;20219;-79
2023/07/21 04:09:41;;;;;;;6.68;6.18;;;16.80;99.90;;;;;;5054477;28;20195;-78
2023/07/21 04:12:08;;;;;;;7.45;6.85;;;16.90;99.90;;;;;;5031134;28;20198;-79
2023/07/21 04:14:36;;;;;;;9.35;8.27;;;16.90;99.90;;;;;;5020888;28;20559;-79
2023/07/21 04:17:06;;;;;;;9.82;8.93;;;16.90;99.90;;;;;;5017400;28;20223;-79
2023/07/21 04:19:33;;;;;;;9.15;8.32;;;16.60;99.90;;;;;;5030003;28;20219;-79
2023/07/21 04:22:01;;;;;;;8.95;8.13;;;16.60;99.90;;;;;;5033890;28;20191;-80
2023/07/21 04:24:29;;;;;;;9.82;8.63;;;16.70;99.90;;;;;;5033337;28;20214;-79
2023/07/21 04:26:56;;;;;;;10.50;9.50;;;16.80;99.90;;;;;;5024274;28;20227;-79
2023/07/21 04:29:24;;;;;;;10.23;8.80;;;16.70;99.90;;;;;;5034471;28;20199;-79
2023/07/21 04:31:51;;;;;;;9.10;8.30;;;16.70;99.90;;;;;;5034526;28;20557;-79
2023/07/21 04:34:20;;;;;;;9.98;9.07;;;16.80;99.90;;;;;;5035768;28;20198;-79
2023/07/21 04:36:49;;;;;;;10.38;9.48;;;16.80;99.90;;;;;;5030767;28;20224;-79
2023/07/21 04:39:29;;;;;;;11.63;10.60;;;16.80;99.90;;;;;;5014569;28;20210;-79
2023/07/21 04:41:57;;;;;;;10.93;10.00;;;16.70;99.90;;;;;;5019587;28;20677;-79
2023/07/21 04:44:25;;;;;;;10.93;9.82;;;16.70;99.90;;;;;;5033880;28;20203;-79
2023/07/21 04:46:53;;;;;;;11.15;10.05;;;16.90;99.90;;;;;;5034121;28;20215;-79
2023/07/21 04:49:32;;;;;;;12.00;10.80;;;16.90;99.90;;;;;;5023810;28;20206;-79
2023/07/21 04:52:00;;;;;;;13.77;12.48;;;16.90;99.90;;;;;;5030181;28;20206;-79
2023/07/21 04:54:35;;;;;;;14.45;12.98;;;16.70;99.90;;;;;;5035286;28;20568;-79
2023/07/21 04:57:03;;;;;;;14.25;12.85;;;16.40;99.90;;;;;;5034718;28;20222;-79
2023/07/21 04:59:30;;;;;;;15.95;14.35;;;16.50;99.90;;;;;;5033306;28;20199;-79
2023/07/21 05:01:58;;;;;;;18.30;15.50;;;16.40;99.90;;;;;;5035309;28;20195;-79
2023/07/21 05:04:25;;;;;;;17.88;15.88;;;16.40;99.90;;;;;;5034344;28;20203;-79
2023/07/21 05:06:54;;;;;;;19.38;17.38;;;16.30;99.90;;;;;;5033883;28;20223;-79
2023/07/21 05:09:22;;;;;;;18.92;16.98;;;16.30;99.90;;;;;;5029905;28;20191;-79
2023/07/21 05:11:50;;;;;;;19.27;17.10;;;16.30;99.90;;;;;;5032483;28;20211;-79
2023/07/21 05:14:37;;;;;;;20.52;18.42;;;16.40;99.90;;;;;;5032744;28;20195;-79
2023/07/21 05:18:09;;;;;;;21.90;19.55;;;16.20;99.90;;;;;;5019220;28;20231;-79
2023/07/21 05:20:56;;;;;;;19.85;17.80;;;16.30;99.90;;;;;;5023572;28;20222;-79
2023/07/21 05:23:48;;;;;;;20.42;18.23;;;16.40;99.90;;;;;;5032243;28;20195;-79
2023/07/21 05:26:19;;;;;;;20.90;18.65;;;16.50;99.90;;;;;;5032857;28;20218;-79
2023/07/21 05:28:49;;;;;;;21.83;19.58;;;16.40;99.90;;;;;;5033382;28;20214;-79
2023/07/21 05:31:17;;;;;;;21.38;19.08;;;16.30;99.90;;;;;;5033193;28;20557;-78
2023/07/21 05:33:57;;;;;;;20.25;18.20;;;16.20;99.90;;;;;;5019879;28;20214;-78
2023/07/21 05:36:26;;;;;;;20.67;18.45;;;16.40;99.90;;;;;;5026749;28;20219;-78
2023/07/21 05:38:54;;;;;;;22.20;19.90;;;16.60;99.90;;;;;;5032574;28;20218;-78
2023/07/21 05:41:23;;;;;;;21.40;19.15;;;16.60;99.90;;;;;;5031594;28;20215;-78
2023/07/21 05:43:50;;;;;;;20.63;18.52;;;16.80;99.90;;;;;;5032940;28;20207;-78
2023/07/21 05:46:18;;;;;;;23.67;18.88;;;16.90;99.90;;;;;;5031780;28;20219;-78
2023/07/21 05:48:55;;;;;;;21.05;18.85;;;16.90;99.90;;;;;;5026866;28;20213;-78
2023/07/21 05:51:51;;;;;;;19.95;17.65;;;16.70;99.90;;;;;;5032225;28;20194;-78
2023/07/21 05:54:26;;;;;;;20.15;18.08;;;17.00;99.90;;;;;;5043989;28;20402;-78
2023/07/21 05:56:54;;;;;;;20.52;18.30;;;16.90;99.90;;;;;;5032750;28;20215;-78
2023/07/21 05:59:27;;;;;;;20.65;18.55;;;16.80;99.90;;;;;;5029358;28;20199;-78
2023/07/21 06:02:02;;;;;;;17.40;15.50;;;17.00;99.90;;;;;;5029554;28;20571;-79
2023/07/21 06:05:06;;;;;;;20.40;16.67;;;17.30;99.90;;;;;;5028539;28;20203;-79
2023/07/21 06:07:47;;;;;;;17.58;15.70;;;17.50;99.90;;;;;;5024652;28;20210;-79
2023/07/21 06:10:21;;;;;;;17.40;14.73;;;17.60;99.90;;;;;;5028821;28;20199;-79
2023/07/21 06:13:08;;;;;;;16.60;14.68;;;17.70;99.90;;;;;;5037688;28;20203;-79
2023/07/21 06:15:54;;;;;;;16.98;14.07;;;17.80;99.90;;;;;;5018583;28;20222;-79
2023/07/21 06:18:42;;;;;;;14.65;13.18;;;17.80;99.90;;;;;;5019254;28;20195;-79
2023/07/21 06:21:11;;;;;;;16.50;14.88;;;17.90;99.90;;;;;;5018318;28;20223;-79
2023/07/21 06:23:54;;;;;;;16.30;14.80;;;17.80;99.90;;;;;;5012684;28;20196;-79
2023/07/21 06:26:23;;;;;;;15.05;13.55;;;17.50;99.90;;;;;;5019147;28;20217;-79
2023/07/21 06:29:41;;;;;;;15.73;14.18;;;17.70;99.90;;;;;;5032436;28;20200;-79
2023/07/21 06:32:12;;;;;;;15.93;14.25;;;18.00;99.90;;;;;;5012933;28;20206;-79
2023/07/21 06:35:09;;;;;;;14.23;12.63;;;17.60;99.90;;;;;;5019209;28;20199;-79
2023/07/21 06:37:56;;;;;;;15.18;13.75;;;18.00;99.90;;;;;;5012767;28;20204;-79
2023/07/21 06:40:42;;;;;;;14.93;13.52;;;18.20;99.90;;;;;;5029131;28;20577;-79
2023/07/21 06:43:30;;;;;;;16.35;14.75;;;18.20;99.90;;;;;;5029183;28;20195;-79
2023/07/21 06:46:17;;;;;;;15.25;13.65;;;18.00;99.90;;;;;;5032129;28;20226;-79
2023/07/21 06:49:07;;;;;;;15.93;14.32;;;17.90;99.90;;;;;;5006948;28;20203;-78
2023/07/21 06:51:55;;;;;;;15.20;13.70;;;18.10;99.90;;;;;;5030120;28;20203;-78
2023/07/21 06:54:29;;;;;;;16.88;14.98;;;18.10;99.90;;;;;;5021838;28;20206;-78
2023/07/21 06:56:58;;;;;;;17.08;15.38;;;17.90;99.90;;;;;;5029746;28;20222;-78
2023/07/21 06:59:26;;;;;;;15.23;13.65;;;17.70;99.90;;;;;;5029299;28;20199;-78
2023/07/21 07:01:55;;;;;;;15.38;13.63;;;17.90;99.90;;;;;;5031790;28;20219;-78
2023/07/21 07:04:34;;;;;;;17.00;13.82;;;17.90;99.90;;;;;;5015633;28;20204;-79
2023/07/21 07:07:01;;;;;;;14.10;12.82;;;18.00;99.90;;;;;;5021855;28;20224;-79
2023/07/21 07:09:29;;;;;;;17.17;14.25;;;18.00;99.90;;;;;;5027276;28;20210;-79
2023/07/21 07:11:56;;;;;;;13.45;12.15;;;18.20;99.90;;;;;;5030975;28;20206;-78
2023/07/21 07:14:24;;;;;;;13.07;11.88;;;18.60;99.90;;;;;;5028051;28;20203;-79
2023/07/21 07:16:53;;;;;;;12.88;10.80;;;18.80;99.90;;;;;;5030742;28;20222;-78
2023/07/21 07:19:31;;;;;;;14.35;12.48;;;18.90;99.90;;;;;;5031237;28;20195;-78
2023/07/21 07:21:59;;;;;;;11.45;10.35;;;19.00;99.90;;;;;;5029752;28;20210;-79
2023/07/21 07:24:26;;;;;;;11.18;10.18;;;18.80;99.90;;;;;;5026655;28;20207;-79
2023/07/21 07:26:54;;;;;;;13.73;12.48;;;19.00;99.90;;;;;;5040288;28;20220;-79
2023/07/21 07:29:21;;;;;;;13.73;12.32;;;18.40;99.90;;;;;;5049105;28;20198;-79
2023/07/21 07:31:50;;;;;;;14.02;12.27;;;18.40;99.90;;;;;;5032041;28;20218;-79
2023/07/21 07:34:18;;;;;;;12.35;11.20;;;18.50;99.90;;;;;;5030996;28;20214;-79
2023/07/21 07:36:46;;;;;;;12.63;11.38;;;18.90;99.90;;;;;;5041117;28;20215;-79
2023/07/21 07:39:13;;;;;;;13.25;12.02;;;19.00;99.90;;;;;;5036317;28;20199;-79
2023/07/21 07:41:44;;;;;;;13.13;11.82;;;18.90;99.90;;;;;;5051111;28;20210;-79
2023/07/21 07:44:12;;;;;;;12.82;11.68;;;18.80;99.90;;;;;;5055483;28;20208;-79
2023/07/21 07:46:39;;;;;;;12.30;11.20;;;18.50;99.90;;;;;;5054726;28;20587;-79
2023/07/21 07:49:10;;;;;;;10.77;9.68;;;18.40;99.90;;;;;;5051024;28;20198;-79
2023/07/21 07:51:40;;;;;;;10.15;8.55;;;18.70;99.90;;;;;;5056663;28;20205;-79
2023/07/21 07:54:10;;;;;;;10.75;9.75;;;18.70;99.90;;;;;;5052603;28;20206;-79
2023/07/21 07:56:38;;;;;;;11.75;8.65;;;19.00;99.90;;;;;;5030849;28;20249;-77
2023/07/21 07:59:49;;;;;;;10.88;9.70;;;19.10;99.90;;;;;;5030751;28;20203;-78
2023/07/21 08:02:16;;;;;;;9.70;6.68;;;19.00;99.90;;;;;;5024663;28;20214;-78
2023/07/21 08:08:34;;;;;;;14.55;11.27;;;19.60;99.90;;;;;;5038928;28;20194;-78
2023/07/21 08:11:03;;;;;;;12.75;11.43;;;19.00;99.90;;;;;;5029421;28;20203;-77
2023/07/21 08:13:30;;;;;;;9.63;8.60;;;18.80;99.90;;;;;;5031648;28;20195;-77
2023/07/21 08:19:49;;;;;;;12.10;10.63;;;19.50;99.90;;;;;;5019195;28;20672;-78
2023/07/21 08:22:18;;;;;;;9.70;8.80;;;19.50;99.90;;;;;;5032193;28;20226;-78
2023/07/21 08:24:46;;;;;;;10.70;9.60;;;19.60;99.90;;;;;;5030890;28;20191;-78
2023/07/21 08:27:14;;;;;;;22.60;10.80;;;19.60;99.90;;;;;;5029790;28;20222;-78
2023/07/21 08:29:41;;;;;;;9.95;9.05;;;19.60;99.90;;;;;;5030589;28;20198;-78
2023/07/21 08:32:27;;;;;;;9.27;8.45;;;19.80;99.90;;;;;;5031586;28;20214;-78
2023/07/21 08:34:56;;;;;;;9.70;8.80;;;19.80;99.90;;;;;;5029755;28;20202;-78
2023/07/21 08:37:23;;;;;;;9.55;8.50;;;19.80;99.90;;;;;;5028300;28;20211;-78
2023/07/21 08:39:52;;;;;;;11.43;9.90;;;20.00;99.90;;;;;;5026108;28;20211;-78
2023/07/21 08:42:21;;;;;;;9.43;8.52;;;20.00;99.90;;;;;;5029037;28;20658;-78
2023/07/21 08:44:50;;;;;;;10.30;9.30;;;19.80;99.90;;;;;;5041992;28;20207;-78
2023/07/21 08:47:18;;;;;;;7.97;7.18;;;19.80;99.90;;;;;;5028581;28;20700;-78
2023/07/21 08:49:46;;;;;;;9.57;7.80;;;20.00;99.90;;;;;;5024524;28;20207;-78
2023/07/21 08:52:26;;;;;;;8.23;7.40;;;20.10;99.90;;;;;;5028389;28;20191;-78
2023/07/21 08:54:55;;;;;;;6.70;6.07;;;19.70;99.90;;;;;;5025835;28;20203;-78
2023/07/21 08:57:30;;;;;;;7.63;6.93;;;20.00;99.90;;;;;;5029932;28;20222;-78
2023/07/21 08:59:58;;;;;;;7.95;7.00;;;20.00;99.90;;;;;;5026848;28;20210;-78
2023/07/21 09:02:39;;;;;;;8.75;7.95;;;19.80;99.90;;;;;;5024291;28;20227;-78
2023/07/21 09:05:07;;;;;;;7.75;6.97;;;19.70;99.90;;;;;;5026362;28;20829;-79
2023/07/21 09:07:36;;;;;;;9.45;7.03;;;19.90;99.90;;;;;;5027597;28;20203;-79
2023/07/21 09:10:06;;;;;;;6.95;6.30;;;20.10;99.90;;;;;;5030719;28;20191;-79
2023/07/21 09:12:41;;;;;;;9.02;7.57;;;20.20;99.90;;;;;;5031292;28;20195;-79
2023/07/21 09:15:09;;;;;;;10.05;8.95;;;20.10;99.90;;;;;;5033463;28;20206;-79
2023/07/21 09:17:41;;;;;;;10.02;8.52;;;20.00;99.90;;;;;;5032579;28;20653;-79
2023/07/21 09:20:23;;;;;;;9.50;8.50;;;20.00;99.90;;;;;;5031182;28;20209;-78
2023/07/21 09:22:51;;;;;;;9.13;8.18;;;20.00;99.90;;;;;;5030891;28;20225;-78
2023/07/21 09:25:24;;;;;;;9.20;8.40;;;20.10;99.90;;;;;;5027292;28;20202;-79
2023/07/21 09:27:55;;;;;;;7.72;6.93;;;19.90;99.90;;;;;;5031334;28;20548;-79
2023/07/21 09:30:23;;;;;;;10.50;9.40;;;20.10;99.90;;;;;;5031758;28;20203;-78
2023/07/21 09:32:54;;;;;;;8.30;7.50;;;20.30;99.90;;;;;;5027029;28;20212;-78
2023/07/21 09:35:22;;;;;;;8.50;7.70;;;20.40;99.90;;;;;;5025956;28;20228;-78
2023/07/21 09:37:51;;;;;;;8.88;8.10;;;20.50;99.90;;;;;;5031477;28;20198;-79
2023/07/21 09:40:28;;;;;;;13.95;9.43;;;20.60;99.90;;;;;;5030065;28;20564;-79
2023/07/21 09:42:56;;;;;;;9.38;8.48;;;20.50;99.90;;;;;;5028337;28;20210;-79
2023/07/21 09:45:26;;;;;;;9.55;8.52;;;20.70;99.90;;;;;;5028447;28;20578;-79
2023/07/21 09:48:23;;;;;;;8.88;8.02;;;20.60;99.90;;;;;;5033277;28;20194;-78
2023/07/21 09:50:51;;;;;;;8.63;7.82;;;20.60;99.90;;;;;;5027955;28;20206;-78
2023/07/21 09:53:20;;;;;;;8.23;7.43;;;20.50;99.90;;;;;;5032283;28;20191;-78
2023/07/21 09:55:50;;;;;;;7.93;7.22;;;20.40;99.90;;;;;;5026747;28;20219;-78
2023/07/21 09:58:26;;;;;;;8.38;7.57;;;20.40;99.90;;;;;;5029282;28;20555;-78
2023/07/21 10:00:55;;;;;;;7.93;7.13;;;20.40;99.90;;;;;;5024543;28;20195;-78
2023/07/21 10:03:23;;;;;;;7.72;7.13;;;20.40;99.90;;;;;;5031151;28;20215;-79
2023/07/21 10:05:52;;;;;;;8.52;7.70;;;20.40;99.90;;;;;;5027585;28;20219;-78
2023/07/21 10:08:21;;;;;;;7.65;6.28;;;20.50;99.90;;;;;;5030305;28;20623;-78
2023/07/21 10:10:50;;;;;;;7.95;7.15;;;20.70;99.90;;;;;;5022179;28;20207;-78
2023/07/21 10:13:17;;;;;;;8.95;8.15;;;21.00;99.90;;;;;;5028609;28;20192;-78
2023/07/21 10:16:23;;;;;;;7.18;6.57;;;20.90;99.90;;;;;;5022482;28;20721;-78
2023/07/21 10:19:00;;;;;;;11.85;10.95;;;21.00;99.90;;;;;;5044848;28;20210;-78
2023/07/21 10:21:31;;;;;;;9.95;8.95;;;20.90;99.90;;;;;;5030199;28;20207;-78
2023/07/21 10:24:01;;;;;;;9.85;8.48;;;20.90;99.90;;;;;;5030433;28;20217;-77
2023/07/21 10:26:31;;;;;;;10.43;9.43;;;21.20;99.90;;;;;;5029259;28;20222;-78
2023/07/21 10:29:16;;;;;;;10.07;9.13;;;21.00;99.90;;;;;;5026525;28;20214;-77
2023/07/21 10:31:52;;;;;;;9.77;8.82;;;20.80;99.90;;;;;;5024635;28;20217;-78
2023/07/21 10:34:24;;;;;;;6.45;5.90;;;20.80;99.90;;;;;;5032273;28;20191;-78
2023/07/21 10:36:58;;;;;;;9.00;8.20;;;21.00;99.90;;;;;;5021608;28;20229;-78
2023/07/21 10:39:27;;;;;;;9.25;8.32;;;21.20;99.90;;;;;;5030093;28;20202;-78
2023/07/21 10:41:57;;;;;;;8.57;7.70;;;21.20;99.90;;;;;;5031161;28;20221;-78
2023/07/21 10:44:33;;;;;;;7.88;7.25;;;21.40;99.90;;;;;;5027503;28;20219;-78
2023/07/21 10:47:00;;;;;;;9.63;8.77;;;21.20;99.90;;;;;;5030476;28;20230;-78
2023/07/21 10:49:28;;;;;;;8.45;7.38;;;21.10;99.90;;;;;;5028398;28;20201;-78
2023/07/21 10:52:05;;;;;;;7.95;7.30;;;21.10;99.90;;;;;;5029338;28;20203;-78
2023/07/21 10:54:32;;;;;;;7.80;7.10;;;21.30;99.90;;;;;;5033290;28;20201;-78
2023/07/21 10:57:01;;;;;;;10.18;9.27;;;21.50;99.90;;;;;;5032038;28;20227;-78
2023/07/21 10:59:32;;;;;;;8.80;7.70;;;20.90;99.90;;;;;;5063962;28;20210;-78
2023/07/21 11:02:00;;;;;;;8.30;7.43;;;21.30;99.90;;;;;;5065313;28;20279;-78
2023/07/21 11:04:27;;;;;;;8.35;7.53;;;21.60;99.90;;;;;;5063405;28;20234;-78
2023/07/21 11:06:57;;;;;;;8.60;7.90;;;21.80;98.30;;;;;;5032338;28;20230;-78
2023/07/21 11:09:25;;;;;;;8.77;6.70;;;21.80;98.00;;;;;;5032167;28;20210;-78
2023/07/21 11:11:54;;;;;;;7.88;7.28;;;22.00;98.10;;;;;;5030645;28;20195;-78
2023/07/21 11:14:25;;;;;;;7.45;6.75;;;22.00;97.50;;;;;;5033013;28;20194;-78
2023/07/21 11:16:54;;;;;;;6.93;6.38;;;21.60;97.50;;;;;;5030986;28;20723;-78
2023/07/21 11:19:23;;;;;;;8.50;7.53;;;21.50;98.80;;;;;;5030673;28;20202;-78
2023/07/21 11:21:51;;;;;;;8.65;7.78;;;21.50;98.20;;;;;;5013077;28;20658;-78
2023/07/21 11:24:20;;;;;;;7.07;6.38;;;21.70;98.50;;;;;;5015102;28;20227;-78
2023/07/21 11:26:48;;;;;;;6.47;5.75;;;21.80;99.20;;;;;;5046333;28;20242;-78
2023/07/21 11:29:16;;;;;;;5.72;5.32;;;21.70;97.20;;;;;;5011819;28;20208;-78
2023/07/21 11:31:45;;;;;;;8.35;6.15;;;21.80;99.00;;;;;;5012360;28;20562;-78
2023/07/21 11:34:19;;;;;;;6.15;5.55;;;22.00;98.10;;;;;;5031783;28;20191;-78
2023/07/21 11:36:48;;;;;;;6.15;5.65;;;22.00;98.20;;;;;;5031117;28;20226;-79
2023/07/21 11:39:20;;;;;;;5.68;5.18;;;22.00;97.40;;;;;;5029327;28;20202;-78
2023/07/21 11:41:50;;;;;;;6.93;6.20;;;22.10;96.40;;;;;;5029893;28;20206;-78
2023/07/21 11:44:23;;;;;;;6.57;6.07;;;22.30;95.60;;;;;;5030783;28;20219;-78
2023/07/21 11:46:58;;;;;;;7.82;7.10;;;22.30;96.40;;;;;;5031623;28;20219;-78
2023/07/21 11:49:57;;;;;;;6.75;6.18;;;22.00;96.20;;;;;;5028803;28;20199;-79
2023/07/21 11:52:26;;;;;;;5.47;5.07;;;22.00;95.60;;;;;;5026194;28;20207;-79
2023/07/21 11:54:55;;;;;;;4.50;4.20;;;22.40;96.00;;;;;;5026303;28;20208;-79
2023/07/21 11:57:22;;;;;;;5.20;4.65;;;22.40;94.20;;;;;;5027922;28;20254;-79
2023/07/21 11:59:50;;;;;;;4.85;4.45;;;22.00;93.70;;;;;;5038673;28;20218;-79
2023/07/21 12:02:23;;;;;;;6.85;6.22;;;21.80;94.50;;;;;;5031060;28;20199;-79
2023/07/21 12:04:51;;;;;;;7.47;6.95;;;21.50;95.20;;;;;;5026087;28;20222;-79
2023/07/21 12:07:19;;;;;;;6.13;5.65;;;21.40;95.50;;;;;;5031046;28;20219;-79
2023/07/21 12:09:46;;;;;;;4.60;4.30;;;21.60;95.80;;;;;;5030830;28;20554;-79
2023/07/21 12:12:14;;;;;;;3.78;3.47;;;21.70;95.00;;;;;;5017314;28;20214;-84
2023/07/21 12:14:41;;;;;;;4.00;3.25;;;21.90;95.00;;;;;;5013701;28;20172;-83
2023/07/21 12:17:09;;;;;;;3.63;3.33;;;22.10;94.20;;;;;;5051611;28;20311;-85
2023/07/21 12:19:48;;;;;;;4.00;3.67;;;22.00;93.50;;;;;;5025165;28;20206;-84
2023/07/21 12:22:15;;;;;;;4.13;3.72;;;21.80;93.60;;;;;;5029718;28;20191;-84
2023/07/21 12:24:52;;;;;;;4.05;3.75;;;21.70;93.80;;;;;;5028951;28;20219;-84
2023/07/21 12:27:19;;;;;;;4.80;4.40;;;21.50;94.30;;;;;;5026407;28;20227;-84
2023/07/21 12:29:47;;;;;;;5.38;4.70;;;21.40;94.40;;;;;;5026871;28;20199;-84
2023/07/21 12:32:14;;;;;;;8.07;4.45;;;21.30;94.70;;;;;;5031493;28;20210;-84
2023/07/21 12:34:42;;;;;;;3.72;3.42;;;21.20;95.70;;;;;;5024904;28;20208;-84
2023/07/21 12:37:11;;;;;;;4.20;3.38;;;21.20;97.00;;;;;;5014343;28;20228;-84
2023/07/21 12:39:38;;;;;;;4.55;3.03;;;21.10;97.20;;;;;;5028166;28;20203;-84
2023/07/21 12:42:07;;;;;;;5.57;3.25;;;21.00;98.80;;;;;;5024334;28;20208;-85
2023/07/21 12:44:35;;;;;;;3.80;3.50;;;21.00;99.90;;;;;;5021749;28;20572;-84
2023/07/21 12:47:02;;;;;;;4.35;3.55;;;20.80;99.90;;;;;;5032898;28;20227;-84
2023/07/21 12:49:31;;;;;;;5.43;4.25;;;20.70;99.90;;;;;;5036545;28;20215;-84
2023/07/21 12:51:58;;;;;;;4.88;4.20;;;20.70;99.90;;;;;;5037872;28;20207;-84
2023/07/21 12:54:27;;;;;;;4.40;4.00;;;20.70;99.90;;;;;;5038970;28;20195;-84
2023/07/21 12:56:55;;;;;;;6.30;3.72;;;20.80;99.90;;;;;;5032535;28;20215;-84
2023/07/21 12:59:22;;;;;;;4.35;4.00;;;21.00;99.90;;;;;;5040035;28;20203;-84
2023/07/21 13:01:50;;;;;;;4.28;3.97;;;21.50;99.00;;;;;;5035954;28;20199;-84
2023/07/21 13:04:20;;;;;;;4.63;4.25;;;21.80;98.10;;;;;;5037590;28;20226;-84
2023/07/21 13:06:48;;;;;;;3.80;3.50;;;21.70;96.90;;;;;;5065660;28;20218;-84
2023/07/21 13:09:16;;;;;;;4.47;3.50;;;21.80;97.50;;;;;;5025038;28;20212;-86
2023/07/21 13:11:44;;;;;;;4.10;3.53;;;21.70;95.10;;;;;;5033125;28;20203;-84